Time;durP1;ratioP1;P1;durP2;ratioP2;P2;SDS_P1;SDS_P2;PMS_P1;PMS_P2;Temp;Humidity;BMP_temperature;BMP_pressure;BME280_temperature;BME280_humidity;BME280_pressure;Samples;Min_cycle;Max_cycle;Signal;HPM_P1;HPM_P2
2023/09/13 00:02:24;;;;;;;5.22;2.92;;;;;;;;;;5075744;28;20079;-67
2023/09/13 00:04:54;;;;;;;6.05;3.30;;;;;;;;;;5077849;28;20044;-66
2023/09/13 00:07:23;;;;;;;7.82;3.30;;;;;;;;;;5077680;28;20048;-66
2023/09/13 00:09:53;;;;;;;4.13;2.92;;;;;;;;;;5078596;28;20041;-67
2023/09/13 00:12:21;;;;;;;7.47;2.90;;;;;;;;;;5072200;28;20145;-66
2023/09/13 00:14:49;;;;;;;6.25;2.30;;;;;;;;;;5074222;28;20623;-67
2023/09/13 00:17:18;;;;;;;4.22;2.65;;;;;;;;;;5074318;28;20052;-69
2023/09/13 00:19:46;;;;;;;3.83;2.40;;;;;;;;;;5081264;28;20123;-67
2023/09/13 00:22:15;;;;;;;4.07;2.65;;;;;;;;;;5074170;28;20127;-65
2023/09/13 00:24:43;;;;;;;4.93;2.75;;;;;;;;;;5077770;28;20121;-67
2023/09/13 00:27:13;;;;;;;4.35;2.60;;;;;;;;;;5077826;28;20409;-66
2023/09/13 00:29:41;;;;;;;4.82;2.60;;;;;;;;;;5078127;28;20689;-67
2023/09/13 00:32:10;;;;;;;6.35;2.90;;;;;;;;;;5081338;28;20490;-66
2023/09/13 00:34:38;;;;;;;6.28;2.50;;;;;;;;;;5084187;28;20048;-66
2023/09/13 00:37:06;;;;;;;4.47;2.53;;;;;;;;;;5085455;28;20079;-66
2023/09/13 00:39:36;;;;;;;5.32;2.38;;;;;;;;;;5078972;28;20040;-66
2023/09/13 00:42:05;;;;;;;8.30;3.03;;;;;;;;;;5083175;28;20124;-69
2023/09/13 00:44:34;;;;;;;6.72;3.15;;;;;;;;;;5080183;28;20133;-66
2023/09/13 00:47:03;;;;;;;8.93;3.65;;;;;;;;;;5083964;28;20051;-66
2023/09/13 00:49:31;;;;;;;8.00;2.85;;;;;;;;;;5082923;28;20044;-69
2023/09/13 00:52:00;;;;;;;6.72;3.15;;;;;;;;;;5083667;28;20105;-66
2023/09/13 00:54:28;;;;;;;5.72;2.70;;;;;;;;;;5080131;28;20304;-65
2023/09/13 00:56:57;;;;;;;11.73;2.55;;;;;;;;;;5085551;28;20048;-66
2023/09/13 00:59:26;;;;;;;4.93;2.15;;;;;;;;;;5082498;28;20456;-65
2023/09/13 01:01:55;;;;;;;5.55;2.75;;;;;;;;;;5084113;28;20475;-65
2023/09/13 01:04:24;;;;;;;7.47;2.20;;;;;;;;;;5075608;28;20048;-69
2023/09/13 01:06:52;;;;;;;8.88;2.50;;;;;;;;;;5077574;28;20044;-68
2023/09/13 01:09:21;;;;;;;7.43;2.40;;;;;;;;;;5078871;28;20572;-66
2023/09/13 01:11:51;;;;;;;4.72;2.10;;;;;;;;;;5082291;28;20048;-66
2023/09/13 01:14:21;;;;;;;3.10;1.90;;;;;;;;;;5084288;28;20047;-66
2023/09/13 01:16:53;;;;;;;7.20;2.03;;;;;;;;;;5079246;28;20040;-68
2023/09/13 01:19:43;;;;;;;3.83;2.17;;;;;;;;;;5079315;28;20090;-65
2023/09/13 01:22:24;;;;;;;4.18;2.22;;;;;;;;;;5080766;28;20042;-66
2023/09/13 01:25:07;;;;;;;3.50;1.92;;;;;;;;;;5078779;28;20036;-66
2023/09/13 01:27:49;;;;;;;4.35;2.17;;;;;;;;;;5080464;28;20036;-69
2023/09/13 01:30:20;;;;;;;4.38;1.98;;;;;;;;;;5083438;28;20036;-66
2023/09/13 01:32:48;;;;;;;4.82;2.30;;;;;;;;;;5084386;28;20072;-69
2023/09/13 01:35:17;;;;;;;7.10;2.17;;;;;;;;;;5082073;28;20489;-66
2023/09/13 01:37:46;;;;;;;2.40;1.85;;;;;;;;;;5081728;28;20052;-66
2023/09/13 01:40:15;;;;;;;5.93;2.08;;;;;;;;;;5082657;28;20553;-66
2023/09/13 01:42:45;;;;;;;4.13;1.90;;;;;;;;;;5085914;28;20044;-67
2023/09/13 01:45:15;;;;;;;3.08;1.92;;;;;;;;;;5088340;28;20051;-68
2023/09/13 01:47:46;;;;;;;5.05;2.00;;;;;;;;;;5084153;28;20257;-66
2023/09/13 01:50:15;;;;;;;3.72;2.38;;;;;;;;;;5081758;28;20040;-66
2023/09/13 01:52:43;;;;;;;4.88;2.45;;;;;;;;;;5080386;28;20501;-66
2023/09/13 01:55:12;;;;;;;4.13;2.08;;;;;;;;;;5083515;28;20705;-66
2023/09/13 01:57:40;;;;;;;6.05;2.30;;;;;;;;;;5085252;28;20101;-66
2023/09/13 02:00:09;;;;;;;4.85;2.42;;;;;;;;;;5084921;28;20549;-68
2023/09/13 02:02:38;;;;;;;5.22;2.28;;;;;;;;;;5082066;28;20048;-65
2023/09/13 02:05:08;;;;;;;3.95;2.10;;;;;;;;;;5076563;28;20394;-67
2023/09/13 02:07:36;;;;;;;3.95;2.42;;;;;;;;;;5074535;28;20039;-67
2023/09/13 02:10:05;;;;;;;5.75;2.42;;;;;;;;;;5082561;28;20556;-67
2023/09/13 02:12:34;;;;;;;4.55;2.30;;;;;;;;;;5083639;28;20054;-66
2023/09/13 02:15:02;;;;;;;6.18;2.35;;;;;;;;;;5088592;28;20554;-67
2023/09/13 02:17:32;;;;;;;6.32;2.17;;;;;;;;;;5084114;28;20048;-66
2023/09/13 02:20:01;;;;;;;5.32;2.28;;;;;;;;;;5077022;28;20059;-66
2023/09/13 02:22:30;;;;;;;7.07;2.10;;;;;;;;;;5081592;28;20479;-66
2023/09/13 02:25:03;;;;;;;2.95;2.03;;;;;;;;;;5084279;28;20392;-65
2023/09/13 02:27:33;;;;;;;7.38;2.28;;;;;;;;;;5084827;28;20071;-67
2023/09/13 02:30:02;;;;;;;7.03;2.40;;;;;;;;;;5082188;28;20048;-65
2023/09/13 02:32:30;;;;;;;3.92;2.17;;;;;;;;;;5078475;28;20076;-67
2023/09/13 02:34:59;;;;;;;5.47;2.10;;;;;;;;;;5081592;28;20048;-66
2023/09/13 02:37:28;;;;;;;4.25;2.42;;;;;;;;;;5087503;28;20048;-65
2023/09/13 02:39:58;;;;;;;5.18;2.65;;;;;;;;;;5082332;28;20071;-66
2023/09/13 02:42:28;;;;;;;3.17;2.13;;;;;;;;;;5079782;28;20468;-66
2023/09/13 02:44:56;;;;;;;7.70;2.13;;;;;;;;;;5085457;28;20075;-66
2023/09/13 02:47:25;;;;;;;11.30;3.17;;;;;;;;;;5085617;28;20060;-69
2023/09/13 02:49:53;;;;;;;8.95;3.28;;;;;;;;;;5086514;28;20452;-68
2023/09/13 02:52:28;;;;;;;5.40;3.13;;;;;;;;;;5083899;28;20315;-66
2023/09/13 02:54:58;;;;;;;5.03;2.70;;;;;;;;;;5079298;28;20048;-66
2023/09/13 02:57:27;;;;;;;6.60;2.55;;;;;;;;;;5080588;28;20044;-66
2023/09/13 02:59:55;;;;;;;7.03;2.40;;;;;;;;;;5079786;28;20063;-65
2023/09/13 03:02:24;;;;;;;5.95;2.60;;;;;;;;;;5085456;28;20601;-66
2023/09/13 03:04:52;;;;;;;5.07;2.30;;;;;;;;;;5082813;28;20044;-68
2023/09/13 03:07:21;;;;;;;6.00;2.40;;;;;;;;;;5078302;28;20106;-66
2023/09/13 03:09:52;;;;;;;3.30;2.13;;;;;;;;;;5080416;28;20044;-66
2023/09/13 03:12:22;;;;;;;5.22;2.00;;;;;;;;;;5074502;28;20076;-68
2023/09/13 03:14:51;;;;;;;5.35;2.53;;;;;;;;;;5079832;28;20044;-67
2023/09/13 03:17:19;;;;;;;6.68;2.10;;;;;;;;;;5083380;28;20064;-69
2023/09/13 03:19:47;;;;;;;6.28;2.60;;;;;;;;;;5085455;28;20090;-66
2023/09/13 03:22:16;;;;;;;4.78;2.20;;;;;;;;;;5082152;28;20555;-66
2023/09/13 03:24:44;;;;;;;4.63;2.35;;;;;;;;;;5081434;28;20044;-65
2023/09/13 03:27:13;;;;;;;4.90;2.65;;;;;;;;;;5080950;28;20052;-68
2023/09/13 03:29:42;;;;;;;7.63;2.70;;;;;;;;;;5077044;28;20532;-67
2023/09/13 03:32:11;;;;;;;4.15;2.72;;;;;;;;;;5072432;28;20454;-65
2023/09/13 03:34:39;;;;;;;7.25;2.83;;;;;;;;;;5080422;28;20052;-66
2023/09/13 03:37:08;;;;;;;5.00;2.13;;;;;;;;;;5086116;28;20507;-66
2023/09/13 03:39:36;;;;;;;7.13;2.70;;;;;;;;;;5083196;28;20040;-68
2023/09/13 03:42:05;;;;;;;6.10;2.55;;;;;;;;;;5077169;28;20402;-67
2023/09/13 03:44:33;;;;;;;6.13;2.58;;;;;;;;;;5082758;28;20493;-66
2023/09/13 03:47:03;;;;;;;4.30;2.70;;;;;;;;;;5077170;28;20404;-66
2023/09/13 03:49:31;;;;;;;5.22;2.67;;;;;;;;;;5077374;28;20050;-66
2023/09/13 03:52:01;;;;;;;6.88;2.45;;;;;;;;;;5082768;28;20079;-67
2023/09/13 03:54:29;;;;;;;3.58;2.35;;;;;;;;;;5078658;28;20116;-68
2023/09/13 03:56:58;;;;;;;6.28;2.50;;;;;;;;;;5079801;28;20227;-66
2023/09/13 03:59:26;;;;;;;5.20;2.63;;;;;;;;;;5083000;28;20127;-66
2023/09/13 04:01:55;;;;;;;3.22;2.35;;;;;;;;;;5075751;28;20469;-65
2023/09/13 04:04:28;;;;;;;5.18;3.08;;;;;;;;;;5080447;28;20070;-67
2023/09/13 04:06:56;;;;;;;3.90;2.67;;;;;;;;;;5080767;28;20258;-66
2023/09/13 04:09:25;;;;;;;9.63;3.25;;;;;;;;;;5077953;28;20052;-66
2023/09/13 04:11:53;;;;;;;4.35;2.67;;;;;;;;;;5077104;28;20040;-65
2023/09/13 04:14:22;;;;;;;12.15;2.47;;;;;;;;;;5073405;28;20076;-67
2023/09/13 04:16:50;;;;;;;5.50;2.72;;;;;;;;;;5080005;28;20097;-66
2023/09/13 04:19:19;;;;;;;5.63;2.75;;;;;;;;;;5083918;28;20083;-66
2023/09/13 04:21:48;;;;;;;4.80;2.63;;;;;;;;;;5081416;28;20047;-66
2023/09/13 04:24:17;;;;;;;7.18;2.70;;;;;;;;;;5077487;28;20484;-65
2023/09/13 04:26:45;;;;;;;4.13;2.53;;;;;;;;;;5078329;28;20044;-66
2023/09/13 04:29:13;;;;;;;7.05;2.83;;;;;;;;;;5077621;28;20047;-66
2023/09/13 04:31:42;;;;;;;5.68;2.92;;;;;;;;;;5079316;28;20321;-67
2023/09/13 04:34:10;;;;;;;7.68;2.33;;;;;;;;;;5079540;28;20052;-66
2023/09/13 04:36:39;;;;;;;7.07;2.83;;;;;;;;;;5074698;28;20079;-66
2023/09/13 04:39:08;;;;;;;7.70;2.85;;;;;;;;;;5074542;28;20681;-69
2023/09/13 04:41:37;;;;;;;3.90;2.67;;;;;;;;;;5084418;28;20071;-66
2023/09/13 04:44:05;;;;;;;6.43;2.80;;;;;;;;;;5079328;28;20093;-66
2023/09/13 04:46:34;;;;;;;6.82;2.75;;;;;;;;;;5075231;28;20072;-66
2023/09/13 04:49:03;;;;;;;6.78;3.50;;;;;;;;;;5076387;28;20694;-66
2023/09/13 04:51:31;;;;;;;7.68;3.40;;;;;;;;;;5076234;28;20106;-66
2023/09/13 04:54:00;;;;;;;6.38;2.92;;;;;;;;;;5071441;28;20044;-65
2023/09/13 04:56:30;;;;;;;8.10;3.03;;;;;;;;;;5072835;28;20063;-66
2023/09/13 04:58:58;;;;;;;4.97;2.88;;;;;;;;;;5070448;28;20279;-69
2023/09/13 05:01:27;;;;;;;7.13;3.30;;;;;;;;;;5071249;28;20062;-66
2023/09/13 05:03:56;;;;;;;5.97;3.22;;;;;;;;;;5074853;28;20232;-65
2023/09/13 05:06:25;;;;;;;8.43;3.42;;;;;;;;;;5081456;28;20447;-66
2023/09/13 05:08:54;;;;;;;5.72;2.85;;;;;;;;;;5075762;28;20060;-67
2023/09/13 05:11:23;;;;;;;6.72;3.63;;;;;;;;;;5074170;28;20535;-66
2023/09/13 05:14:08;;;;;;;6.95;3.35;;;;;;;;;;5078632;28;20547;-65
2023/09/13 05:16:37;;;;;;;9.00;3.50;;;;;;;;;;5072441;28;20571;-67
2023/09/13 05:19:06;;;;;;;5.53;3.10;;;;;;;;;;5074592;28;20164;-66
2023/09/13 05:21:34;;;;;;;5.93;3.33;;;;;;;;;;5077868;28;20580;-69
2023/09/13 05:24:03;;;;;;;5.20;3.28;;;;;;;;;;5078443;28;20056;-66
2023/09/13 05:26:31;;;;;;;5.78;3.35;;;;;;;;;;5071846;28;20052;-66
2023/09/13 05:29:02;;;;;;;7.15;3.55;;;;;;;;;;5077516;28;20048;-66
2023/09/13 05:31:31;;;;;;;5.45;2.97;;;;;;;;;;5076030;28;20047;-68
2023/09/13 05:33:59;;;;;;;6.65;3.53;;;;;;;;;;5081731;28;20047;-68
2023/09/13 05:36:28;;;;;;;4.53;2.83;;;;;;;;;;5087393;28;20278;-67
2023/09/13 05:38:56;;;;;;;5.22;3.53;;;;;;;;;;5082050;28;20113;-67
2023/09/13 05:41:25;;;;;;;7.80;3.95;;;;;;;;;;5079316;28;20048;-68
2023/09/13 05:43:53;;;;;;;8.27;3.75;;;;;;;;;;5075953;28;20440;-68
2023/09/13 05:46:23;;;;;;;7.13;3.80;;;;;;;;;;5086141;28;20124;-67
2023/09/13 05:48:52;;;;;;;8.38;3.72;;;;;;;;;;5087915;28;20050;-67
2023/09/13 05:51:20;;;;;;;7.45;4.05;;;;;;;;;;5085052;28;20040;-67
2023/09/13 05:53:48;;;;;;;8.57;4.50;;;;;;;;;;5084043;28;20561;-68
2023/09/13 05:56:17;;;;;;;14.38;4.25;;;;;;;;;;5080495;28;20044;-69
2023/09/13 05:58:45;;;;;;;7.78;3.63;;;;;;;;;;5087229;28;20056;-69
2023/09/13 06:01:14;;;;;;;7.50;3.70;;;;;;;;;;5085962;28;20083;-69
2023/09/13 06:03:43;;;;;;;10.52;4.63;;;;;;;;;;5085024;28;20097;-68
2023/09/13 06:06:12;;;;;;;15.07;4.55;;;;;;;;;;5085401;28;20040;-69
2023/09/13 06:08:41;;;;;;;9.13;5.05;;;;;;;;;;5078111;28;20048;-71
2023/09/13 06:11:09;;;;;;;11.10;4.20;;;;;;;;;;5084894;28;20572;-69
2023/09/13 06:13:37;;;;;;;8.93;3.80;;;;;;;;;;5085085;28;20098;-68
2023/09/13 06:16:06;;;;;;;13.02;4.13;;;;;;;;;;5085872;28;20417;-68
2023/09/13 06:18:34;;;;;;;9.20;4.22;;;;;;;;;;5086608;28;20048;-68
2023/09/13 06:21:04;;;;;;;8.80;3.97;;;;;;;;;;5087855;28;20127;-68
2023/09/13 06:23:37;;;;;;;8.80;4.43;;;;;;;;;;5084476;28;20587;-68
2023/09/13 06:26:06;;;;;;;8.48;4.40;;;;;;;;;;5084270;28;20524;-67
2023/09/13 06:28:34;;;;;;;13.15;4.82;;;;;;;;;;5078327;28;20101;-65
2023/09/13 06:31:03;;;;;;;9.07;4.30;;;;;;;;;;5078910;28;20040;-66
2023/09/13 06:33:33;;;;;;;10.15;4.70;;;;;;;;;;5079074;28;20131;-65
2023/09/13 06:36:11;;;;;;;9.63;4.70;;;;;;;;;;5085014;28;20526;-65
2023/09/13 06:38:40;;;;;;;21.58;4.63;;;;;;;;;;5080838;28;20044;-65
2023/09/13 06:41:09;;;;;;;10.13;4.28;;;;;;;;;;5084801;28;20422;-65
2023/09/13 06:43:37;;;;;;;13.73;5.47;;;;;;;;;;5081045;28;20067;-65
2023/09/13 06:46:20;;;;;;;10.23;4.32;;;;;;;;;;5080667;28;20040;-65
2023/09/13 06:48:49;;;;;;;10.75;4.32;;;;;;;;;;5084201;28;20040;-65
2023/09/13 06:51:19;;;;;;;8.75;4.53;;;;;;;;;;5081090;28;20542;-65
2023/09/13 06:53:51;;;;;;;16.30;4.75;;;;;;;;;;5080746;28;20097;-65
2023/09/13 06:56:22;;;;;;;9.23;4.47;;;;;;;;;;5081040;28;20123;-66
2023/09/13 06:58:54;;;;;;;11.27;4.70;;;;;;;;;;5081780;28;20044;-66
2023/09/13 07:01:26;;;;;;;10.73;4.53;;;;;;;;;;5078765;28;20048;-65
2023/09/13 07:04:14;;;;;;;9.63;5.28;;;;;;;;;;5081632;28;20101;-65
2023/09/13 07:06:54;;;;;;;14.57;4.22;;;;;;;;;;5083121;28;20067;-65
2023/09/13 07:09:25;;;;;;;8.70;4.30;;;;;;;;;;5082631;28;20050;-65
2023/09/13 07:11:54;;;;;;;9.88;4.65;;;;;;;;;;5082928;28;20102;-65
2023/09/13 07:14:22;;;;;;;11.98;4.47;;;;;;;;;;5088234;28;20390;-65
2023/09/13 07:16:51;;;;;;;8.25;4.45;;;;;;;;;;5076521;28;20068;-65
2023/09/13 07:19:20;;;;;;;9.93;4.50;;;;;;;;;;5082293;28;20040;-65
2023/09/13 07:21:49;;;;;;;10.35;4.50;;;;;;;;;;5081588;28;20109;-65
2023/09/13 07:24:19;;;;;;;7.15;3.78;;;;;;;;;;5083081;28;20040;-67
2023/09/13 07:26:47;;;;;;;8.70;4.20;;;;;;;;;;5082302;28;20101;-65
2023/09/13 07:29:16;;;;;;;8.05;4.38;;;;;;;;;;5083391;28;20615;-66
2023/09/13 07:31:45;;;;;;;6.60;4.35;;;;;;;;;;5074118;28;20800;-65
2023/09/13 07:34:15;;;;;;;11.23;5.18;;;;;;;;;;5077972;28;20036;-65
2023/09/13 07:36:59;;;;;;;7.15;4.28;;;;;;;;;;5080353;28;20048;-65
2023/09/13 07:39:29;;;;;;;7.45;3.90;;;;;;;;;;5081904;28;20068;-65
2023/09/13 07:41:58;;;;;;;10.95;4.05;;;;;;;;;;5077929;28;20111;-67
2023/09/13 07:44:27;;;;;;;8.93;4.57;;;;;;;;;;5077925;28;20058;-66
2023/09/13 07:46:55;;;;;;;8.70;4.00;;;;;;;;;;5080181;28;20566;-66
2023/09/13 07:49:25;;;;;;;12.63;3.88;;;;;;;;;;5079642;28;20094;-65
2023/09/13 07:51:54;;;;;;;7.50;3.88;;;;;;;;;;5083066;28;20128;-65
2023/09/13 07:54:22;;;;;;;8.50;4.15;;;;;;;;;;5077238;28;20047;-65
2023/09/13 07:56:52;;;;;;;12.38;4.63;;;;;;;;;;5080974;28;20120;-65
2023/09/13 07:59:20;;;;;;;6.78;4.00;;;;;;;;;;5081961;28;20778;-65
2023/09/13 08:01:53;;;;;;;9.05;4.47;;;;;;;;;;5083176;28;20048;-64
2023/09/13 08:04:22;;;;;;;10.32;4.55;;;;;;;;;;5085438;28;20044;-65
2023/09/13 08:06:50;;;;;;;11.32;4.85;;;;;;;;;;5085082;28;20463;-65
2023/09/13 08:09:18;;;;;;;7.50;4.78;;;;;;;;;;5081085;28;20048;-66
2023/09/13 08:11:48;;;;;;;10.45;4.15;;;;;;;;;;5085527;28;20044;-65
2023/09/13 08:14:18;;;;;;;11.20;4.20;;;;;;;;;;5084530;28;20051;-65
2023/09/13 08:16:47;;;;;;;5.63;3.40;;;;;;;;;;5081554;28;20051;-67
2023/09/13 08:19:15;;;;;;;5.93;3.65;;;;;;;;;;5085843;28;20048;-64
2023/09/13 08:21:44;;;;;;;7.57;4.07;;;;;;;;;;5082678;28;20135;-67
2023/09/13 08:24:12;;;;;;;7.95;3.40;;;;;;;;;;5083670;28;20176;-64
2023/09/13 08:26:41;;;;;;;8.05;3.70;;;;;;;;;;5081233;28;20500;-65
2023/09/13 08:29:09;;;;;;;8.63;4.03;;;;;;;;;;5083023;28;20501;-65
2023/09/13 08:31:39;;;;;;;6.53;3.13;;;;;;;;;;5084491;28;20040;-66
2023/09/13 08:34:08;;;;;;;7.47;3.63;;;;;;;;;;5084701;28;20039;-66
2023/09/13 08:36:38;;;;;;;6.88;3.70;;;;;;;;;;5077198;28;20055;-66
2023/09/13 08:39:07;;;;;;;6.00;3.45;;;;;;;;;;5080367;28;20044;-65
2023/09/13 08:41:36;;;;;;;9.10;3.47;;;;;;;;;;5081756;28;20060;-65
2023/09/13 08:44:05;;;;;;;7.25;3.10;;;;;;;;;;5078669;28;20466;-65
2023/09/13 08:46:34;;;;;;;5.35;3.00;;;;;;;;;;5084880;28;20545;-68
2023/09/13 08:49:05;;;;;;;6.13;3.30;;;;;;;;;;5085347;28;20127;-65
2023/09/13 08:51:35;;;;;;;7.47;3.50;;;;;;;;;;5080412;28;20048;-65
2023/09/13 08:54:04;;;;;;;7.78;3.50;;;;;;;;;;5083097;28;20044;-68
2023/09/13 08:56:34;;;;;;;8.15;3.67;;;;;;;;;;5079782;28;20436;-66
2023/09/13 08:59:03;;;;;;;6.18;3.40;;;;;;;;;;5079562;28;20036;-69
2023/09/13 09:01:32;;;;;;;7.30;3.63;;;;;;;;;;5080164;28;20066;-65
2023/09/13 09:04:01;;;;;;;6.72;3.33;;;;;;;;;;5082071;28;20076;-65
2023/09/13 09:06:32;;;;;;;5.88;3.53;;;;;;;;;;5079631;28;20355;-67
2023/09/13 09:09:01;;;;;;;7.95;3.40;;;;;;;;;;5083458;28;20455;-66
2023/09/13 09:11:32;;;;;;;6.47;3.30;;;;;;;;;;5079167;28;20044;-66
2023/09/13 09:14:01;;;;;;;5.85;3.30;;;;;;;;;;5081978;28;20060;-66
2023/09/13 09:16:31;;;;;;;8.52;3.60;;;;;;;;;;5077247;28;20048;-66
2023/09/13 09:19:04;;;;;;;8.20;2.95;;;;;;;;;;5077673;28;20059;-66
2023/09/13 09:21:35;;;;;;;10.45;4.65;;;;;;;;;;5074658;28;20444;-66
2023/09/13 09:24:03;;;;;;;5.50;3.53;;;;;;;;;;5074547;28;20515;-66
2023/09/13 09:26:32;;;;;;;6.53;3.22;;;;;;;;;;5080600;28;20044;-66
2023/09/13 09:29:10;;;;;;;9.65;3.78;;;;;;;;;;5078325;28;20044;-67
2023/09/13 09:31:39;;;;;;;8.68;4.20;;;;;;;;;;5075312;28;20047;-68
2023/09/13 09:34:10;;;;;;;7.85;3.75;;;;;;;;;;5077686;28;20173;-68
2023/09/13 09:36:42;;;;;;;8.07;4.18;;;;;;;;;;5076642;28;20573;-68
2023/09/13 09:39:10;;;;;;;8.95;4.28;;;;;;;;;;5073179;28;20057;-67
2023/09/13 09:41:39;;;;;;;6.03;3.70;;;;;;;;;;5075483;28;20478;-67
2023/09/13 09:44:08;;;;;;;7.43;3.78;;;;;;;;;;5078409;28;20050;-67
2023/09/13 09:46:37;;;;;;;5.10;3.42;;;;;;;;;;5084123;28;20056;-69
2023/09/13 09:49:06;;;;;;;5.82;3.42;;;;;;;;;;5082991;28;20063;-67
2023/09/13 09:51:34;;;;;;;5.95;3.50;;;;;;;;;;5081082;28;20040;-67
2023/09/13 09:54:04;;;;;;;5.60;3.85;;;;;;;;;;5084104;28;21061;-67
2023/09/13 09:56:32;;;;;;;5.78;3.38;;;;;;;;;;5082738;28;20040;-67
2023/09/13 09:59:01;;;;;;;6.85;3.58;;;;;;;;;;5083384;28;20056;-67
2023/09/13 10:01:29;;;;;;;7.80;3.75;;;;;;;;;;5087533;28;20079;-66
2023/09/13 10:04:08;;;;;;;7.30;3.63;;;;;;;;;;5084312;28;20425;-66
2023/09/13 10:06:37;;;;;;;5.63;3.80;;;;;;;;;;5076660;28;20808;-67
2023/09/13 10:09:07;;;;;;;8.23;4.15;;;;;;;;;;5085375;28;20036;-66
2023/09/13 10:11:36;;;;;;;9.32;4.20;;;;;;;;;;5086746;28;20048;-67
2023/09/13 10:14:04;;;;;;;6.85;3.78;;;;;;;;;;5084200;28;20097;-67
2023/09/13 10:16:34;;;;;;;5.53;3.65;;;;;;;;;;5081282;28;20497;-66
2023/09/13 10:19:06;;;;;;;8.38;3.45;;;;;;;;;;5083070;28;20038;-67
2023/09/13 10:21:34;;;;;;;6.60;3.85;;;;;;;;;;5084869;28;20063;-66
2023/09/13 10:24:04;;;;;;;5.15;3.78;;;;;;;;;;5081041;28;20089;-68
2023/09/13 10:26:34;;;;;;;5.32;3.53;;;;;;;;;;5085535;28;20371;-68
2023/09/13 10:29:05;;;;;;;7.75;3.40;;;;;;;;;;5085498;28;20051;-68
2023/09/13 10:31:36;;;;;;;7.53;3.35;;;;;;;;;;5085903;28;20040;-67
2023/09/13 10:34:07;;;;;;;5.90;3.40;;;;;;;;;;5083570;28;20079;-67
2023/09/13 10:36:38;;;;;;;7.93;4.70;;;;;;;;;;5082041;28;20051;-67
2023/09/13 10:39:10;;;;;;;6.13;3.65;;;;;;;;;;5081405;28;20044;-68
2023/09/13 10:41:43;;;;;;;8.65;4.28;;;;;;;;;;5082920;28;20051;-67
2023/09/13 10:44:12;;;;;;;5.25;3.55;;;;;;;;;;5086173;28;20048;-67
2023/09/13 10:46:41;;;;;;;6.57;4.22;;;;;;;;;;5086876;28;20058;-70
2023/09/13 10:49:10;;;;;;;7.53;3.88;;;;;;;;;;5083751;28;20044;-67
2023/09/13 10:51:40;;;;;;;8.88;4.53;;;;;;;;;;5080404;28;20087;-67
2023/09/13 10:54:09;;;;;;;10.27;4.10;;;;;;;;;;5084387;28;20044;-68
2023/09/13 10:56:38;;;;;;;6.10;3.97;;;;;;;;;;5082609;28;20148;-69
2023/09/13 10:59:08;;;;;;;7.45;4.13;;;;;;;;;;5083506;28;20032;-69
2023/09/13 11:01:37;;;;;;;5.50;3.83;;;;;;;;;;5082624;28;20048;-68
2023/09/13 11:04:06;;;;;;;5.63;3.75;;;;;;;;;;5084971;28;20492;-68
2023/09/13 11:06:35;;;;;;;6.07;3.70;;;;;;;;;;5084351;28;20087;-67
2023/09/13 11:09:13;;;;;;;9.50;4.05;;;;;;;;;;5085036;28;20063;-67
2023/09/13 11:11:46;;;;;;;6.97;3.72;;;;;;;;;;5080817;28;20396;-68
2023/09/13 11:14:19;;;;;;;7.57;3.92;;;;;;;;;;5081627;28;20424;-68
2023/09/13 11:16:48;;;;;;;9.10;4.80;;;;;;;;;;5084260;28;20052;-67
2023/09/13 11:19:16;;;;;;;10.70;4.95;;;;;;;;;;5075301;28;20094;-68
2023/09/13 11:21:49;;;;;;;7.93;4.30;;;;;;;;;;5084874;28;20566;-67
2023/09/13 11:24:33;;;;;;;6.85;4.20;;;;;;;;;;5083208;28;20340;-67
2023/09/13 11:27:10;;;;;;;13.48;4.47;;;;;;;;;;5084969;28;20139;-68
2023/09/13 11:29:44;;;;;;;6.63;3.90;;;;;;;;;;5086879;28;20109;-70
2023/09/13 11:32:19;;;;;;;8.10;4.88;;;;;;;;;;5078206;28;20140;-68
2023/09/13 11:34:54;;;;;;;6.57;4.32;;;;;;;;;;5080479;28;20097;-70
2023/09/13 11:37:24;;;;;;;7.65;4.25;;;;;;;;;;5080622;28;20080;-68
2023/09/13 11:39:55;;;;;;;10.20;4.28;;;;;;;;;;5080286;28;20051;-67
2023/09/13 11:42:27;;;;;;;9.25;5.72;;;;;;;;;;5080790;28;20047;-69
2023/09/13 11:45:07;;;;;;;9.35;4.80;;;;;;;;;;5075067;28;20071;-67
2023/09/13 11:47:56;;;;;;;16.02;6.22;;;;;;;;;;5077545;28;20142;-67
2023/09/13 11:50:25;;;;;;;13.65;5.68;;;;;;;;;;5075781;28;20089;-68
2023/09/13 11:53:15;;;;;;;10.57;5.20;;;;;;;;;;5081365;28;20036;-69
2023/09/13 11:55:45;;;;;;;14.80;5.45;;;;;;;;;;5082191;28;20489;-67
2023/09/13 11:58:36;;;;;;;9.23;4.70;;;;;;;;;;5081321;28;20047;-68
2023/09/13 12:01:26;;;;;;;11.20;5.60;;;;;;;;;;5080053;28;20070;-67
2023/09/13 12:03:59;;;;;;;9.18;4.90;;;;;;;;;;5080621;28;20564;-68
2023/09/13 12:06:31;;;;;;;9.25;5.45;;;;;;;;;;5080032;28;20495;-68
2023/09/13 12:09:11;;;;;;;11.07;5.53;;;;;;;;;;5080889;28;20127;-66
2023/09/13 12:11:43;;;;;;;15.43;5.93;;;;;;;;;;5081973;28;20048;-68
2023/09/13 12:14:17;;;;;;;10.50;6.03;;;;;;;;;;5080493;28;20054;-66
2023/09/13 12:17:03;;;;;;;13.95;6.53;;;;;;;;;;5081507;28;20056;-67
2023/09/13 12:19:37;;;;;;;11.90;6.57;;;;;;;;;;5082193;28;20459;-67
2023/09/13 12:22:05;;;;;;;10.93;6.25;;;;;;;;;;5079065;28;20077;-66
2023/09/13 12:24:34;;;;;;;11.13;6.38;;;;;;;;;;5077806;28;20040;-65
2023/09/13 12:27:04;;;;;;;13.73;6.60;;;;;;;;;;5080460;28;20044;-66
2023/09/13 12:29:32;;;;;;;12.45;5.97;;;;;;;;;;5079922;28;20093;-67
2023/09/13 12:32:03;;;;;;;13.60;7.05;;;;;;;;;;5079183;28;20101;-71
2023/09/13 12:34:32;;;;;;;13.18;7.13;;;;;;;;;;5076607;28;20145;-67
2023/09/13 12:37:00;;;;;;;11.75;6.55;;;;;;;;;;5081172;28;20129;-67
2023/09/13 12:39:29;;;;;;;15.43;6.35;;;;;;;;;;5073878;28;20076;-66
2023/09/13 12:41:57;;;;;;;10.10;5.85;;;;;;;;;;5081489;28;20052;-68
2023/09/13 12:44:26;;;;;;;10.48;5.53;;;;;;;;;;5080624;28;20048;-69
2023/09/13 12:46:54;;;;;;;14.18;6.75;;;;;;;;;;5071040;28;20056;-71
2023/09/13 12:49:24;;;;;;;13.82;6.55;;;;;;;;;;5073143;28;20067;-69
2023/09/13 12:51:54;;;;;;;14.75;6.13;;;;;;;;;;5079506;28;20463;-67
2023/09/13 12:54:23;;;;;;;13.73;7.00;;;;;;;;;;5082437;28;20101;-69
2023/09/13 12:56:52;;;;;;;13.50;6.10;;;;;;;;;;5068093;28;20362;-68
2023/09/13 12:59:20;;;;;;;12.13;6.32;;;;;;;;;;5072015;28;20073;-70
2023/09/13 13:01:55;;;;;;;13.18;6.57;;;;;;;;;;5080251;28;20048;-71
2023/09/13 13:04:30;;;;;;;10.75;6.53;;;;;;;;;;5082061;28;20059;-68
2023/09/13 13:07:02;;;;;;;15.60;6.55;;;;;;;;;;5078877;28;20048;-71
2023/09/13 13:09:31;;;;;;;14.07;6.97;;;;;;;;;;5080080;28;20154;-67
2023/09/13 13:11:59;;;;;;;11.10;6.55;;;;;;;;;;5076623;28;20048;-68
2023/09/13 13:14:29;;;;;;;14.23;7.05;;;;;;;;;;5077882;28;20083;-67
2023/09/13 13:16:58;;;;;;;12.77;6.68;;;;;;;;;;5076694;28;20475;-69
2023/09/13 13:19:29;;;;;;;14.73;7.22;;;;;;;;;;5074471;28;20052;-70
2023/09/13 13:22:18;;;;;;;12.95;6.30;;;;;;;;;;5080336;28;20047;-69
2023/09/13 13:24:47;;;;;;;15.43;6.50;;;;;;;;;;5075180;28;20096;-68
2023/09/13 13:27:15;;;;;;;16.42;7.45;;;;;;;;;;5072959;28;20570;-66
2023/09/13 13:29:44;;;;;;;14.85;7.10;;;;;;;;;;5082854;28;20052;-67
2023/09/13 13:32:12;;;;;;;11.88;6.32;;;;;;;;;;5082936;28;21235;-69
2023/09/13 13:34:42;;;;;;;12.82;6.55;;;;;;;;;;5074025;28;20455;-68
2023/09/13 13:37:11;;;;;;;9.45;5.78;;;;;;;;;;5041295;28;20166;-68
2023/09/13 13:39:39;;;;;;;11.30;6.10;;;;;;;;;;5039320;28;20164;-67
2023/09/13 13:42:08;;;;;;;11.63;5.68;;;;;;;;;;5038727;28;20049;-67
2023/09/13 13:44:37;;;;;;;10.70;5.75;;;;;;;;;;5041866;28;20135;-66
2023/09/13 13:47:06;;;;;;;12.95;5.28;;;;;;;;;;5043572;28;20498;-66
2023/09/13 13:49:34;;;;;;;7.93;4.63;;;;;;;;;;5040766;28;20132;-66
2023/09/13 13:52:04;;;;;;;10.52;5.60;;;;;;;;;;5041644;28;20048;-66
2023/09/13 13:54:33;;;;;;;9.60;5.18;;;;;;;;;;5039489;28;20504;-66
2023/09/13 13:57:01;;;;;;;10.73;6.20;;;;;;;;;;5034681;28;20430;-67
2023/09/13 13:59:30;;;;;;;11.57;5.78;;;;;;;;;;5039059;28;20052;-66
2023/09/13 14:01:58;;;;;;;14.27;6.53;;;;;;;;;;5038481;28;20071;-66
2023/09/13 14:04:27;;;;;;;10.95;6.13;;;;;;;;;;5037664;28;20118;-67
2023/09/13 14:06:55;;;;;;;11.82;5.18;;;;;;;;;;5041504;28;20048;-66
2023/09/13 14:09:25;;;;;;;9.73;4.97;;;;;;;;;;5037924;28;20057;-66
2023/09/13 14:11:54;;;;;;;8.73;5.68;;;;;;;;;;5038471;28;20049;-65
2023/09/13 14:14:22;;;;;;;10.50;5.03;;;;;;;;;;5036411;28;20051;-65
2023/09/13 14:16:53;;;;;;;8.70;5.85;;;;;;;;;;5037583;28;20049;-69
2023/09/13 14:19:22;;;;;;;9.95;5.18;;;;;;;;;;5032579;28;20383;-66
2023/09/13 14:21:50;;;;;;;8.77;5.15;;;;;;;;;;5030953;28;20054;-67
2023/09/13 14:24:19;;;;;;;12.25;5.65;;;;;;;;;;5039104;28;20045;-67
2023/09/13 14:26:49;;;;;;;7.65;4.68;;;;;;;;;;5032281;28;20053;-67
2023/09/13 14:29:18;;;;;;;10.90;5.93;;;;;;;;;;5043367;28;20151;-66
2023/09/13 14:31:46;;;;;;;7.93;5.18;;;;;;;;;;5038444;28;20056;-66
2023/09/13 14:34:15;;;;;;;11.77;5.95;;;;;;;;;;5029233;28;20477;-66
2023/09/13 14:36:43;;;;;;;13.57;6.05;;;;;;;;;;5072383;28;20080;-66
2023/09/13 14:39:12;;;;;;;8.52;5.53;;;;;;;;;;5081658;28;20047;-69
2023/09/13 14:41:42;;;;;;;11.23;6.63;;;;;;;;;;5080431;28;20399;-65
2023/09/13 14:44:12;;;;;;;10.38;5.90;;;;;;;;;;5079818;28;20091;-65
2023/09/13 14:46:40;;;;;;;11.45;6.20;;;;;;;;;;5079936;28;20037;-65
2023/09/13 14:49:09;;;;;;;12.02;6.25;;;;;;;;;;5077204;28;20134;-67
2023/09/13 14:51:38;;;;;;;11.40;5.55;;;;;;;;;;5079738;28;20928;-65
2023/09/13 14:54:07;;;;;;;11.48;6.30;;;;;;;;;;5083813;28;20123;-65
2023/09/13 14:56:36;;;;;;;11.48;6.07;;;;;;;;;;5081579;28;20048;-65
2023/09/13 14:59:04;;;;;;;9.20;5.45;;;;;;;;;;5082819;28;20044;-69